»·PEaware :: WAT633 KSEA-KAST

WAT633 :: KSEA-KAST

FLIGHT INFORMATION

Flight Status: Arrived
Operator:
Walker Air Transport
More flights by this operator :: More flights under this callsign
Pilot: Michael F. (9548)
Aircraft: BEECH AIRCRAFT SUPER KING AIR 350
(B350)
More flights by this aircraft type
Origin: KSEA Seattle-Tacoma Intl
United States
Destination: KAST Astoria Regl
United States
More flights between these airports :: More routes between these airports
Route: OLM V187 HEVOL
File this flight plan on PilotEdge
Remarks:
Altitude:
(Current/Filed)
12,000ft
Speed:
(Current/Filed)
250kts
Departed: 16-May-21 08:26 PM
Arrived: 16-May-21 09:12 PM
Distance/Time
Traveled:
101nm/0:46
Distance/Time
To Go:
Arrived

Flight Plot

Page will automatically refresh every two minutes.

Flight plan parsing failed; only flown route is shown


Map Options




Map Legend


Flown Route
Filed Route
Departure Airport
Arrival Airport
Navaid (VOR, NDB)
Fix

Horizontal Profiles

Position Reports

Time Latitude Longitude Heading Altitude Ground
Speed
16-May-21 20:10 47.435502 -122.304056 89 438ft 0kts
16-May-21 20:11 47.435502 -122.304056 89 438ft 0kts
16-May-21 20:12 47.435502 -122.304056 89 438ft 0kts
16-May-21 20:13 47.435502 -122.304056 89 438ft 0kts
16-May-21 20:14 47.435502 -122.304056 89 438ft 0kts
16-May-21 20:15 47.435502 -122.304056 89 438ft 0kts
16-May-21 20:16 47.435502 -122.304056 89 438ft 0kts
16-May-21 20:17 47.435502 -122.304056 89 438ft 0kts
16-May-21 20:18 47.435502 -122.304056 89 438ft 0kts
16-May-21 20:19 47.435502 -122.304056 89 438ft 0kts
16-May-21 20:20 47.435502 -122.304056 89 438ft 0kts
16-May-21 20:21 47.435502 -122.304052 89 438ft 0kts
16-May-21 20:22 47.434962 -122.305462 210 438ft 13kts
16-May-21 20:23 47.431856 -122.306437 261 438ft 0kts
16-May-21 20:24 47.431856 -122.306437 261 438ft 0kts
16-May-21 20:25 47.434235 -122.307936 359 438ft 66kts
16-May-21 20:26 47.469884 -122.306218 2 1672ft 150kts
16-May-21 20:27 47.513344 -122.305368 342 3512ft 167kts
16-May-21 20:28 47.521389 -122.365888 255 5181ft 178kts
16-May-21 20:29 47.507491 -122.437095 255 6931ft 183kts
16-May-21 20:30 47.491234 -122.523187 255 7001ft 243kts
16-May-21 20:31 47.472755 -122.623040 255 6995ft 252kts
16-May-21 20:32 47.455723 -122.715861 254 6988ft 215kts
16-May-21 20:33 47.440847 -122.796872 254 6994ft 195kts
16-May-21 20:34 47.424865 -122.883987 255 7010ft 245kts
16-May-21 20:35 47.383432 -122.959213 185 7077ft 267kts
16-May-21 20:36 47.308108 -122.949744 176 7100ft 275kts
16-May-21 20:37 47.247439 -122.940624 177 10039ft 193kts
16-May-21 20:38 47.192846 -122.933014 177 11724ft 199kts
16-May-21 20:39 47.130653 -122.924620 177 12012ft 253kts
16-May-21 20:40 47.056709 -122.914414 176 12003ft 278kts
16-May-21 20:41 46.981139 -122.925060 214 12003ft 278kts
16-May-21 20:42 46.942560 -123.019170 249 11999ft 276kts
16-May-21 20:43 46.914700 -123.124291 248 11998ft 277kts
16-May-21 20:44 46.887125 -123.229338 249 12009ft 277kts
16-May-21 20:45 46.845756 -123.318103 191 12016ft 282kts
16-May-21 20:46 46.769117 -123.288868 165 12024ft 289kts
16-May-21 20:47 46.691904 -123.264672 200 12030ft 281kts
16-May-21 20:48 46.627175 -123.327285 219 12026ft 280kts
16-May-21 20:49 46.572533 -123.390954 221 12019ft 226kts
16-May-21 20:50 46.522982 -123.450243 221 12060ft 242kts
16-May-21 20:51 46.467675 -123.494389 165 11606ft 242kts
16-May-21 20:52 46.421333 -123.430153 131 10508ft 239kts
16-May-21 20:53 46.379237 -123.355368 131 9009ft 240kts
16-May-21 20:54 46.336740 -123.281349 131 7516ft 239kts
16-May-21 20:55 46.293912 -123.207919 131 6066ft 236kts
16-May-21 20:56 46.248937 -123.177425 208 6047ft 172kts
16-May-21 20:57 46.208202 -123.203654 207 6065ft 162kts
16-May-21 20:58 46.161164 -123.234258 207 6061ft 204kts
16-May-21 20:59 46.107309 -123.269932 207 6062ft 219kts
16-May-21 21:00 46.084606 -123.329211 321 6094ft 212kts
16-May-21 21:01 46.119895 -123.385859 250 6107ft 199kts
16-May-21 21:02 46.092170 -123.455868 290 4962ft 215kts
16-May-21 21:03 46.123992 -123.513671 295 4674ft 149kts
16-May-21 21:04 46.141025 -123.565542 295 4645ft 146kts
16-May-21 21:05 46.140429 -123.625646 283 3730ft 156kts
16-May-21 21:06 46.146491 -123.691106 273 2819ft 161kts
16-May-21 21:07 46.149981 -123.743615 284 1375ft 112kts
16-May-21 21:08 46.153264 -123.787162 282 1155ft 108kts
16-May-21 21:09 46.156023 -123.829889 281 607ft 108kts
16-May-21 21:10 46.158672 -123.872435 278 22ft 88kts
16-May-21 21:11 46.159613 -123.886028 271 20ft 18kts
16-May-21 21:12 46.157519 -123.882697 118 20ft 0kts

Navigation Log

Ident Type
Flight plan parsing failed, navigation log unavailable